Corning, Ohio
Current Conditions -  °F | °C
As of 12:53 PM on Tuesday 21 Oct 2014 (Local Time) from KZZV Reporting Station
Overcast Overcast  
Wind Chill: 51°   Ceiling: 2200
Heat Index: 51°   Visibility: 10mi
Dew Point: 45°   Wind: 12mph
Humidity: 80%   Direction: 340°NNW
Pressure: 29.95"   Gusts: NA
Location:  39.6°N, 82.09°W
Report Text: KZZV 211653Z AUTO 34010KT 10SM SCT017 BKN022 OVC039 11/07 A2995 RMK AO2 SLP143 T01060072
Loading
Personal Weather Stations






























Interactive Weather Map
Tropical Storm Tracking
New forecast layout! Learn more

10-Day Weather Forecast

Advertisements
Track Severe Weather on mobile